Time;durP1;ratioP1;P1;durP2;ratioP2;P2;SDS_P1;SDS_P2;PMS_P1;PMS_P2;Temp;Humidity;BMP_temperature;BMP_pressure;BME280_temperature;BME280_humidity;BME280_pressure;Samples;Min_cycle;Max_cycle;Signal;HPM_P1;HPM_P2
2021/01/08 00:00:11;;;;;;;;;;;;;;;6.97;52.65;100671.44;6034075;23;102401;-80
2021/01/08 00:02:37;;;;;;;;;;;;;;;7.28;51.90;100675.13;6032274;23;96748;-80
2021/01/08 00:05:03;;;;;;;;;;;;;;;7.10;51.84;100668.50;6032104;23;96763;-80
2021/01/08 00:07:32;;;;;;;;;;;;;;;6.99;52.68;100674.91;6031293;23;99305;-80
2021/01/08 00:09:58;;;;;;;;;;;;;;;7.00;52.41;100677.50;6030605;23;97916;-78
2021/01/08 00:12:25;;;;;;;;;;;;;;;6.96;52.69;100673.19;6030837;23;97107;-79
2021/01/08 00:14:50;;;;;;;;;;;;;;;7.19;52.01;100670.06;6031246;23;96922;-80
2021/01/08 00:17:16;;;;;;;;;;;;;;;7.35;51.64;100668.78;6030081;23;98929;-80
2021/01/08 00:19:42;;;;;;;;;;;;;;;7.16;52.40;100670.13;6029143;23;98618;-80
2021/01/08 00:22:09;;;;;;;;;;;;;;;7.14;52.32;100669.31;6031676;23;96686;-82
2021/01/08 00:24:35;;;;;;;;;;;;;;;7.25;51.98;100672.56;6031488;23;96629;-80
2021/01/08 00:27:03;;;;;;;;;;;;;;;7.27;51.93;100669.91;6030909;23;99163;-80
2021/01/08 00:29:30;;;;;;;;;;;;;;;7.15;51.91;100671.88;6029593;23;98124;-80
2021/01/08 00:31:56;;;;;;;;;;;;;;;7.21;52.09;100663.03;6030444;23;96721;-79
2021/01/08 00:34:22;;;;;;;;;;;;;;;7.14;52.36;100671.94;6029426;23;97177;-81
2021/01/08 00:36:49;;;;;;;;;;;;;;;7.19;52.05;100665.69;6028558;23;98952;-80
2021/01/08 00:39:14;;;;;;;;;;;;;;;7.31;51.91;100661.88;6027851;23;99034;-80
2021/01/08 00:41:40;;;;;;;;;;;;;;;7.27;52.30;100670.75;6030868;23;96666;-81
2021/01/08 00:44:06;;;;;;;;;;;;;;;7.24;52.06;100660.31;6030470;23;97298;-80
2021/01/08 00:46:34;;;;;;;;;;;;;;;7.28;52.07;100661.97;6030474;23;98890;-81
2021/01/08 00:49:00;;;;;;;;;;;;;;;7.26;52.09;100669.03;6033737;23;98072;-81
2021/01/08 00:51:26;;;;;;;;;;;;;;;7.14;52.57;100664.06;6034715;23;96698;-80
2021/01/08 00:53:52;;;;;;;;;;;;;;;7.21;52.54;100660.38;6035207;23;96884;-81
2021/01/08 00:56:18;;;;;;;;;;;;;;;7.04;52.42;100663.38;6037308;23;100858;-82
2021/01/08 00:58:44;;;;;;;;;;;;;;;7.24;52.25;100667.31;6039495;23;101140;-81
2021/01/08 01:01:10;;;;;;;;;;;;;;;7.13;52.27;100665.81;6040511;23;97665;-82
2021/01/08 01:03:37;;;;;;;;;;;;;;;7.26;52.31;100669.03;6045583;23;96731;-81
2021/01/08 01:06:02;;;;;;;;;;;;;;;7.08;53.02;100664.19;6048353;23;97806;-80
2021/01/08 01:08:28;;;;;;;;;;;;;;;6.91;53.23;100667.19;6044407;23;97802;-81
2021/01/08 01:10:54;;;;;;;;;;;;;;;7.02;53.16;100664.34;6052183;23;96214;-80
2021/01/08 01:13:20;;;;;;;;;;;;;;;7.11;52.99;100669.38;6048552;23;95900;-81
2021/01/08 01:15:46;;;;;;;;;;;;;;;7.18;52.42;100673.59;6045015;23;100281;-80
2021/01/08 01:18:11;;;;;;;;;;;;;;;7.10;52.75;100667.63;6030339;23;97696;-81
2021/01/08 01:20:38;;;;;;;;;;;;;;;7.06;52.76;100665.97;6030720;23;96949;-81
2021/01/08 01:23:04;;;;;;;;;;;;;;;7.07;52.74;100671.22;6031618;23;96779;-80
2021/01/08 01:25:30;;;;;;;;;;;;;;;7.16;52.92;100675.38;6034784;23;99944;-81
2021/01/08 01:27:56;;;;;;;;;;;;;;;7.15;53.01;100671.03;6046320;23;98168;-81
2021/01/08 01:30:22;;;;;;;;;;;;;;;7.13;52.96;100678.09;6049580;23;96528;-80
2021/01/08 01:32:48;;;;;;;;;;;;;;;7.36;52.36;100669.66;6051173;23;96525;-80
2021/01/08 01:35:14;;;;;;;;;;;;;;;7.28;52.59;100677.75;6050216;23;100896;-79
2021/01/08 01:37:41;;;;;;;;;;;;;;;7.11;52.96;100674.63;6049717;23;98208;-79
2021/01/08 01:40:07;;;;;;;;;;;;;;;7.17;52.72;100674.47;6050118;23;96562;-79
2021/01/08 01:42:33;;;;;;;;;;;;;;;7.12;52.51;100676.34;6033780;23;96759;-80
2021/01/08 01:44:59;;;;;;;;;;;;;;;7.04;53.04;100673.03;6035123;23;100154;-80
2021/01/08 01:47:25;;;;;;;;;;;;;;;7.13;52.57;100667.56;6039853;23;101877;-80
2021/01/08 01:49:52;;;;;;;;;;;;;;;7.03;52.83;100674.78;6050728;23;96471;-80
2021/01/08 01:52:18;;;;;;;;;;;;;;;6.99;53.05;100673.13;6048881;23;96544;-80
2021/01/08 01:54:44;;;;;;;;;;;;;;;7.19;52.53;100672.69;6053802;23;98106;-80
2021/01/08 01:57:10;;;;;;;;;;;;;;;7.06;52.92;100677.34;6034656;23;98663;-80
2021/01/08 01:59:36;;;;;;;;;;;;;;;7.17;52.93;100671.84;6030616;23;96630;-80
2021/01/08 02:02:06;;;;;;;;;;;;;;;7.16;52.79;100675.38;6030698;23;96861;-81
2021/01/08 02:04:32;;;;;;;;;;;;;;;7.17;52.87;100670.09;6030255;23;100242;-79
2021/01/08 02:06:59;;;;;;;;;;;;;;;7.15;52.57;100676.31;6030749;23;98041;-80
2021/01/08 02:09:25;;;;;;;;;;;;;;;7.11;52.42;100664.97;6030297;23;96760;-80
2021/01/08 02:11:53;;;;;;;;;;;;;;;6.79;53.52;100670.94;6029608;23;97003;-80
2021/01/08 02:14:20;;;;;;;;;;;;;;;7.02;52.97;100673.06;6030585;23;97760;-81
2021/01/08 02:16:47;;;;;;;;;;;;;;;7.25;52.28;100663.78;6029341;23;99094;-80
2021/01/08 02:19:17;;;;;;;;;;;;;;;7.10;52.49;100662.38;6029076;23;97467;-80
2021/01/08 02:21:45;;;;;;;;;;;;;;;7.00;52.76;100661.72;6030106;23;96883;-79
2021/01/08 02:24:15;;;;;;;;;;;;;;;7.14;52.60;100661.44;6030377;23;99432;-79
2021/01/08 02:26:42;;;;;;;;;;;;;;;7.23;52.27;100663.81;6031522;23;99003;-79
2021/01/08 02:29:08;;;;;;;;;;;;;;;7.15;52.14;100661.38;6031322;23;97063;-79
2021/01/08 02:31:34;;;;;;;;;;;;;;;7.16;52.44;100662.22;6030373;23;96770;-80
2021/01/08 02:34:00;;;;;;;;;;;;;;;6.98;52.80;100655.63;6031015;23;99930;-79
2021/01/08 02:36:27;;;;;;;;;;;;;;;6.94;53.33;100663.63;6029535;23;98879;-79
2021/01/08 02:38:53;;;;;;;;;;;;;;;6.87;53.05;100657.66;6043160;23;96882;-80
2021/01/08 02:41:20;;;;;;;;;;;;;;;7.20;52.40;100667.41;6053728;23;96595;-80
2021/01/08 02:43:47;;;;;;;;;;;;;;;7.19;52.58;100656.91;6055052;23;97930;-80
2021/01/08 02:46:13;;;;;;;;;;;;;;;7.16;52.47;100660.47;6049835;23;96897;-80
2021/01/08 02:48:39;;;;;;;;;;;;;;;7.10;52.64;100663.25;6030240;23;96690;-80
2021/01/08 02:51:05;;;;;;;;;;;;;;;7.02;52.88;100659.91;6036094;23;96796;-79
2021/01/08 02:53:32;;;;;;;;;;;;;;;7.10;52.52;100657.13;6036987;23;98919;-79
2021/01/08 02:56:01;;;;;;;;;;;;;;;7.15;52.34;100660.53;6029529;23;98916;-80
2021/01/08 02:58:28;;;;;;;;;;;;;;;7.40;51.85;100655.56;6029864;23;96798;-81
2021/01/08 03:00:56;;;;;;;;;;;;;;;7.36;52.00;100659.16;6030829;23;96796;-80
2021/01/08 03:03:22;;;;;;;;;;;;;;;7.22;52.07;100657.69;6031287;23;99234;-80
2021/01/08 03:05:48;;;;;;;;;;;;;;;7.17;52.38;100658.72;6033626;23;99477;-80
2021/01/08 03:08:14;;;;;;;;;;;;;;;7.23;52.19;100653.31;6029809;23;96736;-81
2021/01/08 03:10:40;;;;;;;;;;;;;;;7.23;52.32;100653.31;6029832;23;96847;-79
2021/01/08 03:13:06;;;;;;;;;;;;;;;7.15;52.17;100650.03;6031381;23;99264;-79
2021/01/08 03:15:32;;;;;;;;;;;;;;;7.07;52.47;100658.06;6028219;23;99171;-79
2021/01/08 03:17:59;;;;;;;;;;;;;;;6.95;53.17;100652.22;6029453;23;96836;-79
2021/01/08 03:20:25;;;;;;;;;;;;;;;7.19;52.48;100654.28;6028886;23;97374;-78
2021/01/08 03:22:51;;;;;;;;;;;;;;;7.10;52.72;100654.50;6030272;23;99440;-79
2021/01/08 03:25:17;;;;;;;;;;;;;;;7.06;52.84;100655.47;6029229;23;97814;-82
2021/01/08 03:27:42;;;;;;;;;;;;;;;6.95;53.15;100654.84;6029059;23;96786;-79
2021/01/08 03:30:09;;;;;;;;;;;;;;;7.00;52.96;100650.34;6028751;23;96956;-79
2021/01/08 03:32:35;;;;;;;;;;;;;;;6.90;53.21;100649.69;6031046;23;99267;-79
2021/01/08 03:35:02;;;;;;;;;;;;;;;7.18;52.30;100652.56;6030860;23;100035;-80
2021/01/08 03:37:28;;;;;;;;;;;;;;;6.89;53.49;100652.38;6032952;23;96880;-79
2021/01/08 03:39:54;;;;;;;;;;;;;;;6.90;53.29;100649.69;6036395;23;96779;-80
2021/01/08 03:42:20;;;;;;;;;;;;;;;6.86;53.55;100653.28;6031323;23;97853;-79
2021/01/08 03:44:46;;;;;;;;;;;;;;;6.92;53.42;100654.91;6028937;23;98850;-80
2021/01/08 03:47:12;;;;;;;;;;;;;;;6.73;53.72;100652.69;6029064;23;97101;-80
2021/01/08 03:49:38;;;;;;;;;;;;;;;7.01;53.34;100655.59;6028773;23;96872;-79
2021/01/08 03:52:06;;;;;;;;;;;;;;;6.86;53.56;100653.28;6029222;23;99621;-80
2021/01/08 03:54:32;;;;;;;;;;;;;;;6.93;53.37;100652.25;6028759;23;101666;-79
2021/01/08 03:56:59;;;;;;;;;;;;;;;6.95;53.48;100646.97;6028940;23;97178;-79
2021/01/08 03:59:24;;;;;;;;;;;;;;;7.15;52.91;100645.59;6029567;23;97012;-79
2021/01/08 04:01:50;;;;;;;;;;;;;;;6.99;53.25;100653.88;6029908;23;101397;-80
2021/01/08 04:04:16;;;;;;;;;;;;;;;6.96;53.54;100649.53;6030161;23;100279;-79
2021/01/08 04:06:42;;;;;;;;;;;;;;;6.84;53.70;100641.06;6032973;23;96991;-79
2021/01/08 04:09:09;;;;;;;;;;;;;;;6.71;54.01;100649.22;6030005;23;96752;-79
2021/01/08 04:11:35;;;;;;;;;;;;;;;6.71;53.99;100638.72;6032636;23;98139;-79
2021/01/08 04:14:00;;;;;;;;;;;;;;;6.86;53.69;100647.16;6038475;23;98040;-79
2021/01/08 04:16:31;;;;;;;;;;;;;;;6.90;53.48;100639.19;6038992;23;96759;-78
2021/01/08 04:18:57;;;;;;;;;;;;;;;6.96;53.42;100640.78;6039988;23;96806;-80
2021/01/08 04:21:22;;;;;;;;;;;;;;;6.77;53.80;100648.22;6037313;23;98881;-79
2021/01/08 04:23:48;;;;;;;;;;;;;;;6.62;54.36;100646.81;6037961;23;98967;-80
2021/01/08 04:26:15;;;;;;;;;;;;;;;6.78;53.95;100645.56;6040021;23;97019;-81
2021/01/08 04:28:41;;;;;;;;;;;;;;;6.91;53.92;100645.28;6038171;23;96708;-80
2021/01/08 04:31:06;;;;;;;;;;;;;;;7.06;53.40;100643.19;6030307;23;102344;-80
2021/01/08 04:33:35;;;;;;;;;;;;;;;6.80;53.87;100645.53;6028480;23;101332;-80
2021/01/08 04:36:00;;;;;;;;;;;;;;;6.99;53.44;100651.25;6029831;23;97008;-80
2021/01/08 04:38:26;;;;;;;;;;;;;;;7.06;53.20;100645.84;6032357;23;97021;-81
2021/01/08 04:40:52;;;;;;;;;;;;;;;6.92;53.65;100647.03;6030453;23;97950;-81
2021/01/08 04:43:19;;;;;;;;;;;;;;;6.94;53.46;100640.00;6032786;23;97567;-80
2021/01/08 04:45:45;;;;;;;;;;;;;;;7.01;53.54;100637.19;6031529;23;96592;-80
2021/01/08 04:48:12;;;;;;;;;;;;;;;6.91;53.44;100647.94;6031101;23;97029;-81
2021/01/08 04:50:38;;;;;;;;;;;;;;;6.93;53.21;100643.50;6030410;23;98967;-81
2021/01/08 04:53:04;;;;;;;;;;;;;;;6.60;54.14;100645.09;6030529;23;100178;-80
2021/01/08 04:55:30;;;;;;;;;;;;;;;6.90;53.68;100641.81;6030011;23;96736;-79
2021/01/08 04:57:56;;;;;;;;;;;;;;;6.77;54.12;100645.59;6030793;23;96829;-80
2021/01/08 05:00:23;;;;;;;;;;;;;;;6.92;53.53;100652.28;6031202;23;99507;-80
2021/01/08 05:02:51;;;;;;;;;;;;;;;6.94;53.20;100655.75;6031434;23;97707;-80
2021/01/08 05:05:18;;;;;;;;;;;;;;;6.90;53.42;100649.69;6032150;23;96657;-79
2021/01/08 05:07:45;;;;;;;;;;;;;;;6.97;53.30;100648.66;6030371;23;96615;-80
2021/01/08 05:10:11;;;;;;;;;;;;;;;7.25;52.80;100650.66;6029782;23;101982;-79
2021/01/08 05:12:37;;;;;;;;;;;;;;;6.97;52.97;100658.28;6029092;23;98871;-79
2021/01/08 05:15:05;;;;;;;;;;;;;;;6.98;53.02;100649.50;6030129;23;96698;-81
2021/01/08 05:17:32;;;;;;;;;;;;;;;7.11;52.81;100653.59;6028898;23;97662;-80
2021/01/08 05:19:58;;;;;;;;;;;;;;;7.05;53.17;100651.97;6028804;23;100469;-80
2021/01/08 05:22:24;;;;;;;;;;;;;;;6.97;53.41;100648.66;6029795;23;98294;-80
2021/01/08 05:24:50;;;;;;;;;;;;;;;7.09;52.96;100650.13;6029902;23;96620;-80
2021/01/08 05:27:27;;;;;;;;;;;;;;;6.95;53.25;100646.97;6029594;23;96791;-80
2021/01/08 05:29:52;;;;;;;;;;;;;;;7.13;53.15;100646.56;6030170;23;99230;-81
2021/01/08 05:32:18;;;;;;;;;;;;;;;7.08;53.09;100649.31;6029232;23;98100;-79
2021/01/08 05:34:45;;;;;;;;;;;;;;;7.13;52.85;100651.81;6028602;23;96838;-80
2021/01/08 05:37:13;;;;;;;;;;;;;;;6.95;52.89;100652.22;6028974;23;96746;-79
2021/01/08 05:39:39;;;;;;;;;;;;;;;7.26;52.54;100658.50;6030149;23;97804;-81
2021/01/08 05:42:05;;;;;;;;;;;;;;;7.12;52.88;100655.34;6030512;23;97521;-79
2021/01/08 05:44:32;;;;;;;;;;;;;;;7.21;52.96;100652.50;6030828;23;96668;-80
2021/01/08 05:46:58;;;;;;;;;;;;;;;7.17;52.72;100656.09;6030661;23;96701;-79
2021/01/08 05:49:24;;;;;;;;;;;;;;;7.23;52.24;100661.19;6031116;23;98943;-82
2021/01/08 05:51:52;;;;;;;;;;;;;;;7.20;52.51;100656.91;6032683;23;98740;-80
2021/01/08 05:54:18;;;;;;;;;;;;;;;7.29;52.44;100666.31;6030367;23;96877;-81
2021/01/08 05:56:46;;;;;;;;;;;;;;;7.06;53.04;100668.59;6030285;23;96929;-79
2021/01/08 05:59:12;;;;;;;;;;;;;;;7.31;52.61;100667.16;6048131;23;100718;-79
2021/01/08 06:01:39;;;;;;;;;;;;;;;7.16;52.77;100662.22;6046840;23;97798;-79
2021/01/08 06:04:06;;;;;;;;;;;;;;;7.14;52.91;100667.56;6027421;23;96848;-80
2021/01/08 06:06:38;;;;;;;;;;;;;;;7.30;52.50;100661.91;6029673;23;96765;-79
2021/01/08 06:09:05;;;;;;;;;;;;;;;7.08;53.25;100669.44;6030488;23;101483;-80
2021/01/08 06:11:31;;;;;;;;;;;;;;;7.07;53.29;100673.84;6030689;23;97778;-79
2021/01/08 06:13:58;;;;;;;;;;;;;;;6.80;53.85;100664.78;6031636;23;96685;-79
2021/01/08 06:16:24;;;;;;;;;;;;;;;7.17;53.11;100669.22;6032543;23;96828;-79
2021/01/08 06:18:51;;;;;;;;;;;;;;;7.18;53.06;100660.44;6030064;23;98604;-79
2021/01/08 06:21:18;;;;;;;;;;;;;;;7.08;52.98;100665.06;6031184;23;98961;-80
2021/01/08 06:23:44;;;;;;;;;;;;;;;7.31;52.69;100667.16;6031261;23;96700;-80
2021/01/08 06:26:12;;;;;;;;;;;;;;;7.08;53.14;100665.06;6031143;23;96916;-80
2021/01/08 06:28:39;;;;;;;;;;;;;;;7.17;53.14;100666.59;6030715;23;98319;-79
2021/01/08 06:31:09;;;;;;;;;;;;;;;7.26;52.57;100663.78;6031679;23;97443;-82
2021/01/08 06:33:36;;;;;;;;;;;;;;;7.12;52.89;100673.72;6032023;23;96753;-79
2021/01/08 06:36:13;;;;;;;;;;;;;;;7.20;52.64;100671.78;6030980;23;96798;-79
2021/01/08 06:38:43;;;;;;;;;;;;;;;7.23;52.60;100669.09;6030643;23;98142;-80
2021/01/08 06:41:12;;;;;;;;;;;;;;;7.43;52.63;100673.88;6030058;23;101432;-80
2021/01/08 06:43:40;;;;;;;;;;;;;;;7.13;53.14;100678.97;6029503;23;96928;-80
2021/01/08 06:46:13;;;;;;;;;;;;;;;7.16;52.98;100675.38;6028551;23;96836;-80
2021/01/08 06:48:40;;;;;;;;;;;;;;;6.98;53.66;100683.66;6028917;23;100163;-81
2021/01/08 06:51:08;;;;;;;;;;;;;;;7.21;52.75;100686.66;6029757;23;97778;-80
2021/01/08 06:53:36;;;;;;;;;;;;;;;6.90;53.77;100680.34;6029779;23;96708;-80
2021/01/08 06:56:03;;;;;;;;;;;;;;;7.28;52.97;100680.38;6029957;23;97019;-81
2021/01/08 06:58:29;;;;;;;;;;;;;;;7.11;53.04;100687.75;6028779;23;99940;-82
2021/01/08 07:01:00;;;;;;;;;;;;;;;7.22;53.03;100695.41;6029479;23;102374;-80
2021/01/08 07:03:26;;;;;;;;;;;;;;;7.04;53.57;100699.28;6028825;23;97072;-80
2021/01/08 07:05:55;;;;;;;;;;;;;;;7.11;53.44;100695.63;6029724;23;96989;-80
2021/01/08 07:08:23;;;;;;;;;;;;;;;7.28;52.71;100704.03;6029125;23;98917;-79
2021/01/08 07:10:52;;;;;;;;;;;;;;;7.01;53.30;100699.38;6028704;23;98654;-79
2021/01/08 07:13:27;;;;;;;;;;;;;;;7.17;53.21;100701.63;6029970;23;96829;-80
2021/01/08 07:15:53;;;;;;;;;;;;;;;7.06;53.42;100708.03;6030240;23;96801;-80
2021/01/08 07:18:23;;;;;;;;;;;;;;;7.18;52.94;100707.75;6030089;23;98900;-81
2021/01/08 07:20:52;;;;;;;;;;;;;;;7.46;52.50;100714.13;6028858;23;100919;-81
2021/01/08 07:23:20;;;;;;;;;;;;;;;7.08;53.26;100703.59;6030148;23;96702;-80
2021/01/08 07:25:53;;;;;;;;;;;;;;;7.09;53.18;100707.94;6029950;23;97022;-81
2021/01/08 07:28:19;;;;;;;;;;;;;;;7.15;53.11;100713.09;6031415;23;102254;-82
2021/01/08 07:30:45;;;;;;;;;;;;;;;7.09;52.92;100713.19;6030240;23;98807;-81
2021/01/08 07:33:16;;;;;;;;;;;;;;;7.08;53.40;100712.34;6029369;23;96700;-83
2021/01/08 07:35:45;;;;;;;;;;;;;;;7.10;53.52;100715.78;6025191;23;97252;-82
2021/01/08 07:38:13;;;;;;;;;;;;;;;7.06;53.47;100729.03;6028019;23;100525;-81
2021/01/08 07:40:40;;;;;;;;;;;;;;;7.21;53.28;100718.22;6029446;23;99575;-79
2021/01/08 07:43:06;;;;;;;;;;;;;;;7.28;52.96;100730.31;6028797;23;96757;-79
2021/01/08 07:45:49;;;;;;;;;;;;;;;7.23;52.97;100726.91;6029239;23;97275;-81
2021/01/08 07:48:21;;;;;;;;;;;;;;;7.04;53.52;100736.09;6028953;23;97798;-80
2021/01/08 07:50:52;;;;;;;;;;;;;;;7.12;53.31;100732.41;6029036;23;99293;-81
2021/01/08 07:53:37;;;;;;;;;;;;;;;7.40;52.44;100739.69;6029867;23;97159;-80
2021/01/08 07:56:05;;;;;;;;;;;;;;;7.25;53.06;100742.66;6029575;23;96943;-83
2021/01/08 07:58:31;;;;;;;;;;;;;;;7.49;52.58;100752.59;6036803;23;98964;-82
2021/01/08 08:00:58;;;;;;;;;;;;;;;7.26;53.11;100753.13;6048733;23;98091;-82
2021/01/08 08:03:24;;;;;;;;;;;;;;;7.17;53.13;100758.56;6051270;23;95971;-82
2021/01/08 08:05:52;;;;;;;;;;;;;;;7.36;53.07;100759.03;6050259;23;96637;-81
2021/01/08 08:08:20;;;;;;;;;;;;;;;7.45;52.32;100759.72;6038301;23;97929;-79
2021/01/08 08:10:46;;;;;;;;;;;;;;;7.34;53.20;100761.72;6028450;23;96810;-78
2021/01/08 08:13:12;;;;;;;;;;;;;;;7.34;53.06;100764.34;6029392;23;97200;-78
2021/01/08 08:15:45;;;;;;;;;;;;;;;7.44;52.76;100765.00;6030068;23;96975;-80
2021/01/08 08:18:11;;;;;;;;;;;;;;;7.30;53.06;100764.44;6028618;23;99963;-79
2021/01/08 08:20:37;;;;;;;;;;;;;;;7.30;53.32;100765.28;6028401;23;100966;-78
2021/01/08 08:23:16;;;;;;;;;;;;;;;7.29;53.01;100768.81;6028749;23;97193;-79
2021/01/08 08:25:44;;;;;;;;;;;;;;;7.48;52.54;100780.66;6028220;23;97061;-79
2021/01/08 08:28:11;;;;;;;;;;;;;;;7.51;52.57;100772.72;6027947;23;99981;-81
2021/01/08 08:30:37;;;;;;;;;;;;;;;7.32;53.03;100779.28;6027608;23;101665;-79
2021/01/08 08:33:07;;;;;;;;;;;;;;;7.29;53.13;100781.97;6029671;23;96967;-80
2021/01/08 08:35:33;;;;;;;;;;;;;;;7.41;52.97;100776.47;6002144;23;96815;-80
2021/01/08 08:38:00;;;;;;;;;;;;;;;7.40;52.72;100784.38;6028659;23;98928;-81
2021/01/08 08:40:28;;;;;;;;;;;;;;;7.35;53.12;100783.63;6033305;23;101769;-81
2021/01/08 08:42:55;;;;;;;;;;;;;;;7.26;53.37;100787.31;6031627;23;97199;-81
2021/01/08 08:45:23;;;;;;;;;;;;;;;7.20;53.34;100779.53;6030645;23;96736;-80
2021/01/08 08:47:50;;;;;;;;;;;;;;;7.57;52.91;100779.59;6029722;23;100715;-81
2021/01/08 08:50:16;;;;;;;;;;;;;;;7.21;53.21;100778.66;6031559;23;96894;-81
2021/01/08 08:52:42;;;;;;;;;;;;;;;7.44;52.88;100793.91;6031198;23;96986;-81
2021/01/08 08:55:09;;;;;;;;;;;;;;;7.38;53.23;100794.91;6028751;23;97057;-81
2021/01/08 08:57:36;;;;;;;;;;;;;;;7.59;52.74;100796.22;6029822;23;99218;-81
2021/01/08 09:00:03;;;;;;;;;;;;;;;7.70;52.60;100790.69;6030720;23;101674;-80
2021/01/08 09:02:29;;;;;;;;;;;;;;;7.60;52.71;100797.94;6028342;23;96857;-80
2021/01/08 09:04:56;;;;;;;;;;;;;;;7.25;53.51;100798.69;6032685;23;96741;-79
2021/01/08 09:07:26;;;;;;;;;;;;;;;7.39;53.11;100801.03;6033596;23;99128;-81
2021/01/08 09:09:53;;;;;;;;;;;;;;;7.64;52.77;100793.47;6030045;23;99329;-78
2021/01/08 09:12:26;;;;;;;;;;;;;;;7.57;53.03;100795.38;6029407;23;97334;-79
2021/01/08 09:14:56;;;;;;;;;;;;;;;7.66;52.84;100794.31;6030250;23;97429;-79
2021/01/08 09:17:23;;;;;;;;;;;;;;;7.72;52.63;100800.28;6030360;23;100127;-79
2021/01/08 09:19:53;;;;;;;;;;;;;;;7.81;52.53;100804.50;6030907;23;98110;-79
2021/01/08 09:22:19;;;;;;;;;;;;;;;7.83;52.28;100795.63;6029723;23;97202;-80
2021/01/08 09:24:47;;;;;;;;;;;;;;;7.68;52.75;100800.41;6029790;23;97049;-79
2021/01/08 09:27:13;;;;;;;;;;;;;;;7.49;53.22;100808.69;6029414;23;99170;-79
2021/01/08 09:29:39;;;;;;;;;;;;;;;7.44;53.36;100805.31;6029819;23;98241;-79
2021/01/08 09:32:07;;;;;;;;;;;;;;;7.48;53.23;100801.69;6030763;23;96778;-80
2021/01/08 09:34:33;;;;;;;;;;;;;;;7.76;52.80;100803.72;6030889;23;96857;-79
2021/01/08 09:37:00;;;;;;;;;;;;;;;7.97;52.37;100803.22;6031607;23;100283;-79
2021/01/08 09:39:27;;;;;;;;;;;;;;;7.86;52.66;100806.09;6031297;23;98972;-80
2021/01/08 09:41:56;;;;;;;;;;;;;;;7.93;52.07;100804.19;6033912;23;97019;-78
2021/01/08 09:44:30;;;;;;;;;;;;;;;7.77;52.40;100808.06;6033673;23;96776;-79
2021/01/08 09:46:56;;;;;;;;;;;;;;;7.75;52.77;100804.59;6030158;23;99693;-79
2021/01/08 09:49:23;;;;;;;;;;;;;;;7.78;52.47;100804.53;6030407;23;99454;-80
2021/01/08 09:52:01;;;;;;;;;;;;;;;7.89;52.26;100808.66;6033596;23;96820;-80
2021/01/08 09:54:38;;;;;;;;;;;;;;;8.08;52.29;100801.19;6042530;23;96784;-79
2021/01/08 09:57:04;;;;;;;;;;;;;;;8.23;51.62;100800.81;6043653;23;98707;-79
2021/01/08 09:59:31;;;;;;;;;;;;;;;8.00;52.07;100805.78;6046650;23;98045;-79
2021/01/08 10:01:59;;;;;;;;;;;;;;;8.14;51.31;100801.03;6047532;23;97241;-79
2021/01/08 10:04:30;;;;;;;;;;;;;;;7.75;52.45;100805.47;6044836;23;96816;-80
2021/01/08 10:06:57;;;;;;;;;;;;;;;7.97;52.04;100801.44;6044313;23;101989;-78
2021/01/08 10:09:23;;;;;;;;;;;;;;;7.77;52.62;100808.06;6041102;23;98116;-79
2021/01/08 10:11:57;;;;;;;;;;;;;;;7.77;52.35;100802.81;6039284;23;96720;-81
2021/01/08 10:14:23;;;;;;;;;;;;;;;7.74;52.71;100802.91;6035143;23;97908;-81
2021/01/08 10:16:49;;;;;;;;;;;;;;;7.26;53.68;100805.69;6038012;23;98905;-79
2021/01/08 10:19:15;;;;;;;;;;;;;;;7.57;53.22;100796.25;6039457;23;98159;-80
2021/01/08 10:21:46;;;;;;;;;;;;;;;7.64;53.03;100804.00;6032635;23;96826;-82
2021/01/08 10:24:24;;;;;;;;;;;;;;;7.58;53.35;100795.34;6034565;23;96824;-81
2021/01/08 10:26:50;;;;;;;;;;;;;;;7.72;52.91;100800.28;6038848;23;97459;-81
2021/01/08 10:29:16;;;;;;;;;;;;;;;7.65;53.40;100795.19;6035972;23;97016;-81
2021/01/08 10:31:42;;;;;;;;;;;;;;;7.74;52.93;100803.78;6036301;23;96906;-81
2021/01/08 10:34:08;;;;;;;;;;;;;;;7.61;53.37;100797.88;6037404;23;97391;-81
2021/01/08 10:36:35;;;;;;;;;;;;;;;7.70;53.26;100798.59;6035881;23;99249;-81
2021/01/08 10:39:02;;;;;;;;;;;;;;;7.65;53.00;100796.06;6037339;23;101637;-80
2021/01/08 10:41:28;;;;;;;;;;;;;;;7.92;52.99;100805.09;6040296;23;96584;-82
2021/01/08 10:43:54;;;;;;;;;;;;;;;7.87;52.83;100799.09;6040767;23;96854;-81
2021/01/08 10:46:21;;;;;;;;;;;;;;;7.87;52.72;100804.34;6040417;23;100478;-80
2021/01/08 10:48:47;;;;;;;;;;;;;;;7.93;52.46;100798.94;6040795;23;100429;-81
2021/01/08 10:51:26;;;;;;;;;;;;;;;7.93;52.50;100798.94;6043467;23;96754;-80
2021/01/08 10:53:53;;;;;;;;;;;;;;;7.84;52.54;100800.00;6020554;23;97377;-79
2021/01/08 10:56:29;;;;;;;;;;;;;;;7.78;53.18;100801.91;6045522;23;97890;-80
2021/01/08 10:58:55;;;;;;;;;;;;;;;7.83;52.99;100803.53;6036935;23;101285;-79
2021/01/08 11:01:21;;;;;;;;;;;;;;;8.12;52.01;100807.25;6036180;23;96652;-80
2021/01/08 11:03:47;;;;;;;;;;;;;;;8.29;51.50;100808.56;6040771;23;96694;-82
2021/01/08 11:06:17;;;;;;;;;;;;;;;8.21;51.98;100805.22;6047002;23;97741;-79
2021/01/08 11:08:43;;;;;;;;;;;;;;;8.01;52.56;100802.22;6048703;23;101910;-80
2021/01/08 11:11:09;;;;;;;;;;;;;;;7.81;52.89;100800.06;6052262;23;96573;-79
2021/01/08 11:13:36;;;;;;;;;;;;;;;8.14;52.24;100803.66;6047767;23;96845;-80
2021/01/08 11:16:05;;;;;;;;;;;;;;;7.97;52.88;100813.75;6043206;23;99385;-79
2021/01/08 11:18:31;;;;;;;;;;;;;;;7.83;53.03;100803.53;6044592;23;100048;-80
2021/01/08 11:20:57;;;;;;;;;;;;;;;7.99;52.55;100801.41;6040476;23;97048;-80
2021/01/08 11:23:23;;;;;;;;;;;;;;;7.91;52.72;100804.22;6039772;23;96619;-79
2021/01/08 11:25:49;;;;;;;;;;;;;;;8.00;52.83;100805.78;6043651;23;99977;-80
2021/01/08 11:28:16;;;;;;;;;;;;;;;7.72;52.76;100804.69;6041692;23;100998;-82
2021/01/08 11:30:43;;;;;;;;;;;;;;;7.61;53.29;100811.03;6046470;23;96642;-82
2021/01/08 11:33:12;;;;;;;;;;;;;;;7.83;53.12;100798.28;6043559;23;97027;-82
2021/01/08 11:35:38;;;;;;;;;;;;;;;7.80;53.02;100808.00;6042328;23;98026;-82
2021/01/08 11:41:10;;;;;;;;;;;;;;;7.98;52.50;100800.56;6000039;23;97155;-80
2021/01/08 11:43:37;;;;;;;;;;;;;;;8.33;51.58;100807.63;6033170;23;96631;-80
2021/01/08 11:46:03;;;;;;;;;;;;;;;8.10;52.07;100809.91;6034290;23;101031;-80
2021/01/08 11:48:30;;;;;;;;;;;;;;;8.16;52.20;100807.13;6036739;23;96754;-79
2021/01/08 11:50:55;;;;;;;;;;;;;;;8.12;52.21;100810.75;6038528;23;96631;-80
2021/01/08 11:53:21;;;;;;;;;;;;;;;8.16;51.73;100804.50;6036673;23;96822;-81
2021/01/08 11:55:47;;;;;;;;;;;;;;;8.17;52.28;100800.97;6035286;23;96813;-81
2021/01/08 11:58:13;;;;;;;;;;;;;;;8.24;51.54;100802.53;6035315;23;97749;-79
2021/01/08 12:00:39;;;;;;;;;;;;;;;7.67;53.10;100803.94;6038969;23;97133;-79
2021/01/08 12:03:06;;;;;;;;;;;;;;;8.04;52.28;100804.78;6037706;23;96647;-79
2021/01/08 12:05:32;;;;;;;;;;;;;;;7.91;52.34;100800.72;6043349;23;101520;-81
2021/01/08 12:07:58;;;;;;;;;;;;;;;7.59;53.35;100799.72;6045721;23;101232;-80
2021/01/08 12:10:24;;;;;;;;;;;;;;;7.87;52.75;100809.59;6042965;23;96694;-80
2021/01/08 12:12:50;;;;;;;;;;;;;;;7.87;52.83;100802.59;6034006;23;97921;-79
2021/01/08 12:15:16;;;;;;;;;;;;;;;8.01;52.37;100802.22;6032479;23;101593;-79
2021/01/08 12:17:42;;;;;;;;;;;;;;;7.78;53.13;100799.28;6031757;23;98189;-80
2021/01/08 12:20:10;;;;;;;;;;;;;;;7.94;52.77;100803.31;6031716;23;97522;-79
2021/01/08 12:22:36;;;;;;;;;;;;;;;7.75;53.02;100799.34;6028986;23;97091;-78
2021/01/08 12:25:02;;;;;;;;;;;;;;;7.83;52.92;100800.91;6028409;23;97938;-78
2021/01/08 12:27:27;;;;;;;;;;;;;;;8.00;52.69;100801.38;6026815;23;99070;-79
2021/01/08 12:29:53;;;;;;;;;;;;;;;7.81;52.46;100810.59;6029218;23;96687;-79
2021/01/08 12:32:19;;;;;;;;;;;;;;;7.78;52.97;100809.81;6028512;23;97371;-79
2021/01/08 12:34:45;;;;;;;;;;;;;;;7.89;52.85;100810.41;6029641;23;98892;-79
2021/01/08 12:37:12;;;;;;;;;;;;;;;8.01;52.67;100808.34;6030076;23;99301;-79
2021/01/08 12:39:38;;;;;;;;;;;;;;;8.05;52.81;100811.78;6029855;23;96712;-79
2021/01/08 12:42:06;;;;;;;;;;;;;;;7.83;53.27;100803.53;6028899;23;96843;-79
2021/01/08 12:44:31;;;;;;;;;;;;;;;8.02;52.80;100810.09;6028630;23;99312;-79
2021/01/08 12:46:59;;;;;;;;;;;;;;;7.85;53.21;100812.25;6026995;23;99229;-78